TFM - Tactical Decision Aid (Experimental) INFO Settings

ID: Runway Winds: CIG/VIS Threshold: METAR Board: Map:

Katl - Atlanta-Hartsfield Jackson Intl

Updated at: 0404 UTC 05 Mar 2015
Latest TAF at: 0154 UTC 05 Mar 2015

TAF Board

Time0352Z05/05Z05/06Z05/07Z05/08Z05/09Z05/10Z05/11Z05/12Z05/13Z05/14Z05/15Z05/16Z05/17Z
TypeOBSPRVLPRVLPRVLPRVLPRVLPRVLPRVLPRVLPRVLPRVLPRVLPRVLPRVL
VIS6>6555222222222
CIG2012666444555555
CoverOVCBKNOVCOVCOVCOVCOVCOVCOVCOVCOVCOVCOVCOVC
FltCatMVFRMVFRIFRIFRIFRLIFRLIFRLIFRIFRIFRIFRIFRIFRIFR
WX-RAVCSH-SHRA BR-SHRA BR-SHRA BR-SHRA BR-SHRA BR-SHRA BR-RA-RA-RA-RA-RA-RA
WDir220200220220220250250250320320320320320320
WSpd1210888777141414141414
WGst17--------------------------
TAF
KATL 050154Z 0502/0606 20010KT P6SM SCT040 BKN060
  TEMPO 0502/0504 5SM -SHRA BKN030
  FM050400 20010KT P6SM VCSH BKN012
  FM050600 22008KT 5SM -SHRA BR OVC006
  FM050900 25007KT 2SM -SHRA BR OVC004
  FM051200 32014KT 2SM -RA OVC005
  FM052000 33012G22KT 6SM BR OVC012
  FM060200 32012KT P6SM BKN020


METAR
KATL 050352Z 22012G17KT 6SM -RA BKN020 BKN030 OVC080 20/16 A2994 RMK AO2 RAB46 SLP133 P0000 T02000161
KATL 050346Z 22009G20KT 10SM -RA BKN022 BKN030 OVC080 21/16 A2994 RMK AO2 RAB46 P0000
KATL 050252Z 20010KT 10SM SCT065 BKN080 BKN250 20/16 A2993 RMK AO2 SLP129 T02000161 58000

TAF/METAR Board Legend

Potential Impact
  None Marginal Slight Moderate High
Visibility (sm) > ≤X≤ <
Ceiling (100 ft) > ≤X≤ <
Wind Speed (kt) <10 10≤X<20 20≤X<30 ≥30
Wind Gust (kt) <15 15≤X<25 25≤X<35 ≥35
Weather No Wx Reported VCTS -TS,-FZRA TS,FZRA +TS,+FZRA